SNKD weather

Conceição do Mato Dentro Airport
Conceição Do Mato Dentro, Minas Gerais, Brazil

Public forecast

Using degrees Celsius for public forecast. Weather courtesy of forecast.io.

METAR (pilot weather report)

Report is more than 2 hours old.

Closest report is Lagoa Santa Airport, 46.6 nm (86.3 km) SW. Retrieved 2019/07/23 01:00 UTC (5 hours ago):

SBLS 230100Z 12008KT CAVOK 15/11 Q1026

TAF (pilot weather forecast)

Forecast is more than 12 hours old.

Closest forecast is Serro Airport, 24.7 nm (45.8 km) N. Retrieved 2009/11/03 09:30 UTC (10 years ago):

TAF SNSO 030930Z 0312/0418 06010G20KT CAVOK TEMPO 0315/0319 5000 HZ